createdAt,value
2022-09-05T00:02:06.515Z,44.20
2022-09-05T00:05:10.511Z,44.23
2022-09-05T00:08:18.092Z,44.24
2022-09-05T00:11:40.834Z,44.37
2022-09-05T00:14:34.325Z,44.38
2022-09-05T00:22:09.511Z,44.42
2022-09-05T00:24:28.426Z,44.59
2022-09-05T00:25:06.871Z,44.65
2022-09-05T00:28:14.532Z,44.65
2022-09-05T00:31:55.941Z,44.82
2022-09-05T00:34:58.027Z,44.85
2022-09-05T00:37:46.938Z,44.85
2022-09-05T00:40:37.019Z,44.93
2022-09-05T00:43:25.748Z,44.98
2022-09-05T00:46:17.313Z,45.05
2022-09-05T00:49:24.118Z,45.16
2022-09-05T00:52:41.424Z,45.21
2022-09-05T00:55:48.845Z,45.22
2022-09-05T00:58:42.705Z,45.23
2022-09-05T01:01:42.160Z,45.22
2022-09-05T01:04:40.873Z,45.30
2022-09-05T01:07:57.184Z,45.35
2022-09-05T01:10:51.472Z,45.40
2022-09-05T01:13:54.758Z,45.43
2022-09-05T01:17:08.780Z,45.48
2022-09-05T01:20:19.210Z,45.60
2022-09-05T01:23:42.023Z,45.63
2022-09-05T01:27:04.941Z,45.77
2022-09-05T01:29:59.287Z,45.88
2022-09-05T01:33:16.502Z,45.96
2022-09-05T01:36:05.487Z,46.13
2022-09-05T01:39:51.586Z,46.20
2022-09-05T01:42:36.978Z,46.29
2022-09-05T01:45:39.454Z,46.47
2022-09-05T01:48:35.571Z,46.64
2022-09-05T01:51:55.271Z,46.58
2022-09-05T01:54:57.307Z,46.73
2022-09-05T01:58:07.560Z,46.89
2022-09-05T02:01:25.220Z,46.93
2022-09-05T02:04:31.356Z,47.17
2022-09-05T02:07:31.308Z,47.28
2022-09-05T02:10:38.071Z,47.64
2022-09-05T02:13:35.576Z,47.58
2022-09-05T02:16:44.276Z,47.84
2022-09-05T02:19:31.519Z,47.96
2022-09-05T02:22:28.763Z,48.03
2022-09-05T02:26:01.490Z,48.06
2022-09-05T02:28:33.185Z,48.26
2022-09-05T02:31:42.165Z,48.43
2022-09-05T02:34:34.554Z,48.49
2022-09-05T02:41:55.590Z,48.58
2022-09-05T02:45:03.908Z,49.05
2022-09-05T02:45:21.698Z,49.19
2022-09-05T02:47:23.399Z,49.32
2022-09-05T02:53:59.162Z,49.45
2022-09-05T02:57:39.947Z,49.63
2022-09-05T02:57:40.980Z,49.52
2022-09-05T03:00:16.316Z,49.96
2022-09-05T03:03:12.213Z,50.08
2022-09-05T03:06:18.359Z,50.16
2022-09-05T03:09:25.962Z,50.39
2022-09-05T03:12:42.758Z,50.49
2022-09-05T03:15:37.186Z,50.63
2022-09-05T03:18:42.543Z,50.78
2022-09-05T03:21:57.366Z,51.08
2022-09-05T03:25:24.732Z,51.15
2022-09-05T03:28:21.932Z,51.27
2022-09-05T03:31:29.753Z,51.45
2022-09-05T03:34:47.757Z,51.63
2022-09-05T03:38:05.287Z,51.77
2022-09-05T03:41:09.421Z,51.93
2022-09-05T03:44:30.431Z,51.86
2022-09-05T03:47:31.047Z,52.26
2022-09-05T03:53:29.386Z,52.13
2022-09-05T03:57:15.964Z,52.41
2022-09-05T03:57:27.200Z,52.41
2022-09-05T04:00:12.194Z,52.69
2022-09-05T04:08:09.967Z,52.75
2022-09-05T04:08:27.485Z,53.04
2022-09-05T04:10:21.164Z,53.23
2022-09-05T04:13:28.851Z,53.25
2022-09-05T04:16:17.993Z,53.40
2022-09-05T04:19:24.669Z,53.56
2022-09-05T04:22:17.626Z,53.77
2022-09-05T04:25:18.945Z,53.76
2022-09-05T04:28:21.965Z,53.80
2022-09-05T04:31:10.758Z,53.90
2022-09-05T04:34:20.234Z,53.92
2022-09-05T04:37:09.454Z,54.06
2022-09-05T04:39:54.518Z,54.06
2022-09-05T04:42:40.650Z,54.13
2022-09-05T04:45:27.431Z,54.23
2022-09-05T04:48:15.830Z,54.34
2022-09-05T04:51:36.638Z,54.38
2022-09-05T04:54:40.522Z,54.50
2022-09-05T04:57:48.163Z,54.43
2022-09-05T05:06:00.448Z,54.44
2022-09-05T05:06:18.131Z,54.52
2022-09-05T05:07:08.015Z,54.42
2022-09-05T05:10:55.399Z,54.40
2022-09-05T05:18:03.083Z,54.50
2022-09-05T05:18:16.388Z,54.43
2022-09-05T05:20:41.239Z,54.43
2022-09-05T05:24:00.736Z,54.35
2022-09-05T05:26:57.080Z,54.12
2022-09-05T05:30:02.436Z,53.92
2022-09-05T05:32:49.299Z,53.82
2022-09-05T05:35:37.091Z,53.78
2022-09-05T05:38:47.309Z,53.45
2022-09-05T05:41:48.839Z,53.46
2022-09-05T05:44:36.700Z,53.30
2022-09-05T05:47:31.891Z,53.15
2022-09-05T05:50:49.930Z,53.08
2022-09-05T05:54:12.687Z,52.67
2022-09-05T05:57:22.992Z,52.61
2022-09-05T06:00:28.044Z,52.44
2022-09-05T06:03:35.499Z,52.26
2022-09-05T06:06:49.886Z,51.91
2022-09-05T06:14:51.404Z,51.54
2022-09-05T06:14:58.263Z,51.48
2022-09-05T06:17:28.329Z,51.33
2022-09-05T06:22:07.595Z,50.81
2022-09-05T06:24:02.091Z,50.71
2022-09-05T06:26:59.905Z,50.44
2022-09-05T06:30:07.834Z,50.09
2022-09-05T06:33:15.275Z,49.53
2022-09-05T06:36:31.009Z,49.38
2022-09-05T06:39:45.210Z,49.17
2022-09-05T06:42:44.598Z,48.94
2022-09-05T06:45:37.547Z,48.68
2022-09-05T06:49:32.051Z,48.33
2022-09-05T06:52:48.527Z,48.22
2022-09-05T06:55:53.438Z,47.78
2022-09-05T06:58:53.993Z,47.36
2022-09-05T07:02:01.060Z,47.23
2022-09-05T07:05:37.139Z,46.82
2022-09-05T07:08:35.285Z,46.44
2022-09-05T07:11:33.123Z,46.21
2022-09-05T07:14:28.019Z,45.73
2022-09-05T07:17:17.365Z,45.46
2022-09-05T07:20:13.444Z,45.00
2022-09-05T07:23:23.105Z,44.77
2022-09-05T07:26:51.879Z,44.53
2022-09-05T07:29:39.489Z,44.08
2022-09-05T07:32:42.830Z,43.79
2022-09-05T07:35:31.234Z,43.47
2022-09-05T07:38:45.589Z,43.07
2022-09-05T07:41:39.748Z,42.68
2022-09-05T07:44:40.442Z,42.41
2022-09-05T07:47:32.373Z,41.79
2022-09-05T07:52:10.718Z,41.80
2022-09-05T07:57:09.516Z,41.43
2022-09-05T07:57:22.452Z,41.00
2022-09-05T08:00:26.000Z,40.56
2022-09-05T08:03:15.211Z,40.38
2022-09-05T08:06:05.371Z,40.08
2022-09-05T08:09:21.295Z,39.80
2022-09-05T08:12:28.243Z,39.44
2022-09-05T08:15:27.176Z,39.09
2022-09-05T08:18:36.720Z,38.72
2022-09-05T08:21:42.389Z,38.22
2022-09-05T08:24:37.989Z,37.69
2022-09-05T08:27:26.061Z,37.81
2022-09-05T08:30:26.051Z,37.51
2022-09-05T08:33:21.821Z,37.56
2022-09-05T08:36:30.400Z,37.90
2022-09-05T08:39:26.108Z,35.22
2022-09-05T08:42:26.169Z,33.40
2022-09-05T08:46:47.177Z,32.02
2022-09-05T08:49:11.433Z,30.51
2022-09-05T08:52:25.140Z,28.55
2022-09-05T08:55:19.874Z,26.75
2022-09-05T08:58:33.989Z,25.30
2022-09-05T09:01:59.321Z,24.92
2022-09-05T09:05:01.130Z,23.81
2022-09-05T09:08:26.863Z,22.94
2022-09-05T09:11:41.608Z,22.41
2022-09-05T09:14:35.607Z,21.59
2022-09-05T09:17:30.879Z,20.85
2022-09-05T09:20:28.632Z,20.55
2022-09-05T09:23:31.932Z,20.55
2022-09-05T09:26:32.456Z,19.84
2022-09-05T09:29:18.288Z,18.81
2022-09-05T09:32:17.741Z,17.42
2022-09-05T09:35:24.310Z,16.35
2022-09-05T09:38:33.811Z,14.79
2022-09-05T09:41:31.185Z,14.53
2022-09-05T09:44:35.229Z,13.78
2022-09-05T09:47:33.608Z,13.06
2022-09-05T09:50:22.586Z,11.56
2022-09-05T09:53:17.787Z,10.58
2022-09-05T09:56:32.534Z,10.05
2022-09-05T09:59:36.234Z,9.50
2022-09-05T10:07:30.447Z,9.03
2022-09-05T10:10:43.645Z,8.03
2022-09-05T10:10:44.353Z,8.93
2022-09-05T10:13:17.177Z,7.47
2022-09-05T10:16:29.738Z,7.33
2022-09-05T10:22:41.907Z,6.64
2022-09-05T10:25:49.237Z,6.51
2022-09-05T10:28:37.238Z,5.66
2022-09-05T10:35:05.252Z,5.67
2022-09-05T10:35:24.269Z,5.92
2022-09-05T10:38:30.240Z,5.78
2022-09-05T10:41:22.107Z,5.57
2022-09-05T10:44:10.900Z,5.58
2022-09-05T10:47:34.893Z,5.42
2022-09-05T10:50:28.315Z,5.68
2022-09-05T10:53:51.136Z,5.60
2022-09-05T10:56:47.744Z,5.90
2022-09-05T11:02:20.361Z,6.05
2022-09-05T11:02:58.244Z,6.16
2022-09-05T11:05:54.585Z,6.20
2022-09-05T11:08:45.701Z,6.34
2022-09-05T11:11:40.087Z,6.32
2022-09-05T11:14:35.385Z,5.92
2022-09-05T11:17:40.149Z,5.79
2022-09-05T11:20:54.380Z,6.06
2022-09-05T11:23:43.341Z,6.13
2022-09-05T11:26:35.700Z,6.71
2022-09-05T11:29:43.379Z,7.21
2022-09-05T11:39:50.797Z,8.18
2022-09-05T11:40:06.361Z,8.51
2022-09-05T11:43:34.204Z,9.79
2022-09-05T11:46:43.844Z,10.11
2022-09-05T11:49:30.730Z,10.28
2022-09-05T11:52:41.179Z,10.54
2022-09-05T11:55:43.091Z,11.20
2022-09-05T11:58:57.676Z,11.50
2022-09-05T12:02:17.075Z,12.12
2022-09-05T12:05:48.276Z,12.38
2022-09-05T12:08:35.543Z,13.08
2022-09-05T12:11:20.730Z,13.55
2022-09-05T12:14:28.349Z,13.89
2022-09-05T12:17:35.540Z,14.40
2022-09-05T12:20:49.428Z,14.86
2022-09-05T12:27:40.300Z,15.94
2022-09-05T12:30:33.617Z,16.01
2022-09-05T12:36:04.239Z,16.11
2022-09-05T12:41:35.732Z,16.51
2022-09-05T12:41:41.476Z,15.46
2022-09-05T12:41:42.340Z,16.13
2022-09-05T12:44:39.059Z,16.66
2022-09-05T12:46:23.693Z,16.73
2022-09-05T12:49:17.365Z,17.10
2022-09-05T12:52:05.980Z,17.39
2022-09-05T12:54:57.247Z,17.25
2022-09-05T13:00:52.517Z,17.51
2022-09-05T13:03:11.190Z,17.92
2022-09-05T13:04:19.607Z,18.33
2022-09-05T13:07:21.107Z,18.68
2022-09-05T13:11:39.214Z,19.01
2022-09-05T13:14:56.827Z,19.21
2022-09-05T13:16:31.315Z,19.66
2022-09-05T13:19:30.605Z,19.83
2022-09-05T13:22:19.552Z,19.91
2022-09-05T13:25:16.593Z,20.24
2022-09-05T13:28:08.534Z,20.62
2022-09-05T13:37:55.197Z,20.53
2022-09-05T13:38:00.574Z,21.24
2022-09-05T13:38:19.483Z,21.31
2022-09-05T13:40:45.502Z,21.62
2022-09-05T13:43:38.184Z,21.83
2022-09-05T13:46:36.731Z,22.05
2022-09-05T13:49:37.074Z,22.37
2022-09-05T13:52:29.627Z,22.31
2022-09-05T13:55:44.985Z,22.43
2022-09-05T13:58:40.025Z,22.77
2022-09-05T14:02:25.012Z,23.11
2022-09-05T14:05:44.456Z,23.02
2022-09-05T14:08:36.823Z,23.20
2022-09-05T14:11:45.026Z,23.32
2022-09-05T14:15:08.963Z,23.50
2022-09-05T14:17:58.087Z,23.26
2022-09-05T14:21:10.760Z,23.14
2022-09-05T14:23:58.813Z,23.48
2022-09-05T14:27:06.917Z,23.53
2022-09-05T14:29:48.292Z,23.54
2022-09-05T14:37:41.814Z,23.84
2022-09-05T14:37:53.122Z,23.84
2022-09-05T14:39:08.417Z,23.92
2022-09-05T14:41:39.997Z,23.94
2022-09-05T14:44:21.754Z,23.94
2022-09-05T14:46:56.918Z,24.15
2022-09-05T14:49:52.417Z,23.97
2022-09-05T14:52:24.851Z,24.13
2022-09-05T15:02:38.684Z,23.96
2022-09-05T15:02:42.071Z,24.15
2022-09-05T15:06:59.605Z,24.26
2022-09-05T15:11:25.583Z,24.43
2022-09-05T15:12:33.069Z,24.50
2022-09-05T15:15:06.733Z,24.56
2022-09-05T15:17:34.972Z,24.49
2022-09-05T15:20:08.333Z,24.65
2022-09-05T15:22:39.656Z,24.83
2022-09-05T15:25:16.766Z,24.83
2022-09-05T15:27:46.761Z,24.86
2022-09-05T15:30:34.990Z,24.89
2022-09-05T15:33:25.476Z,25.16
2022-09-05T15:35:55.413Z,25.15
2022-09-05T15:38:55.006Z,25.30
2022-09-05T15:41:23.926Z,25.49
2022-09-05T15:44:01.334Z,25.54
2022-09-05T15:46:41.167Z,25.73
2022-09-05T15:49:14.418Z,26.04
2022-09-05T15:51:53.234Z,26.07
2022-09-05T15:54:38.293Z,26.45
2022-09-05T15:57:17.792Z,26.60
2022-09-05T15:59:49.215Z,26.80
2022-09-05T16:02:23.510Z,26.89
2022-09-05T16:10:28.966Z,26.75
2022-09-05T16:10:37.976Z,27.04
2022-09-05T16:14:30.160Z,27.57
2022-09-05T16:23:11.794Z,27.48
2022-09-05T16:23:13.956Z,27.56
2022-09-05T16:23:24.296Z,27.77
2022-09-05T16:26:24.805Z,27.95
2022-09-05T16:29:10.391Z,28.16
2022-09-05T16:31:47.092Z,28.43
2022-09-05T16:34:43.284Z,28.67
2022-09-05T16:37:14.260Z,28.85
2022-09-05T16:39:50.281Z,29.03
2022-09-05T16:42:46.017Z,29.05
2022-09-05T16:45:28.909Z,29.40
2022-09-05T16:48:26.175Z,29.49
2022-09-05T16:51:13.287Z,29.74
2022-09-05T16:53:58.267Z,29.85
2022-09-05T16:56:45.744Z,30.30
2022-09-05T16:59:34.331Z,30.61
2022-09-05T17:02:20.011Z,30.79
2022-09-05T17:05:10.721Z,31.05
2022-09-05T17:07:56.603Z,31.52
2022-09-05T17:10:27.382Z,31.77
2022-09-05T17:12:55.766Z,32.02
2022-09-05T17:15:29.158Z,32.17
2022-09-05T17:18:21.768Z,32.39
2022-09-05T17:20:55.009Z,32.80
2022-09-05T17:29:18.295Z,33.03
2022-09-05T17:29:34.291Z,33.40
2022-09-05T17:32:47.221Z,34.13
2022-09-05T17:35:21.864Z,34.34
2022-09-05T17:37:50.336Z,34.59
2022-09-05T17:40:54.879Z,34.86
2022-09-05T17:43:28.877Z,35.17
2022-09-05T17:46:36.690Z,35.52
2022-09-05T17:49:18.550Z,35.87
2022-09-05T17:51:51.864Z,36.34
2022-09-05T17:54:27.799Z,36.59
2022-09-05T17:56:55.528Z,36.84
2022-09-05T17:59:27.174Z,37.13
2022-09-05T18:02:07.221Z,37.41
2022-09-05T18:04:45.049Z,37.86
2022-09-05T18:07:31.090Z,38.16
2022-09-05T18:10:14.736Z,38.35
2022-09-05T18:13:12.451Z,38.78
2022-09-05T18:15:40.054Z,39.10
2022-09-05T18:21:21.090Z,39.65
2022-09-05T18:23:54.806Z,39.94
2022-09-05T18:26:26.313Z,40.06
2022-09-05T18:29:00.335Z,40.28
2022-09-05T18:31:41.030Z,40.35
2022-09-05T18:34:13.271Z,40.74
2022-09-05T18:36:41.842Z,40.96
2022-09-05T18:39:24.880Z,41.07
2022-09-05T18:42:33.650Z,41.32
2022-09-05T18:45:32.878Z,41.58
2022-09-05T18:48:01.734Z,41.83
2022-09-05T18:50:33.973Z,42.15
2022-09-05T18:53:09.033Z,42.45
2022-09-05T18:56:11.126Z,42.69
2022-09-05T18:58:53.248Z,42.94
2022-09-05T19:01:33.955Z,42.91
2022-09-05T19:04:05.366Z,43.17
2022-09-05T19:06:37.915Z,43.39
2022-09-05T19:09:14.173Z,43.51
2022-09-05T19:11:53.378Z,43.83
2022-09-05T19:14:30.382Z,44.07
2022-09-05T19:17:10.052Z,44.32
2022-09-05T19:20:10.917Z,44.45
2022-09-05T19:23:11.530Z,44.59
2022-09-05T19:25:47.265Z,44.76
2022-09-05T19:33:28.433Z,44.91
2022-09-05T19:36:54.644Z,45.50
2022-09-05T19:37:03.963Z,45.21
2022-09-05T19:37:29.437Z,45.61
2022-09-05T19:42:42.046Z,45.69
2022-09-05T19:47:37.380Z,45.94
2022-09-05T19:47:40.836Z,45.89
2022-09-05T19:48:30.713Z,46.20
2022-09-05T19:51:17.470Z,46.32
2022-09-05T19:53:53.938Z,46.46
2022-09-05T19:56:37.781Z,46.78
2022-09-05T19:59:23.026Z,46.84
2022-09-05T20:01:53.098Z,47.06
2022-09-05T20:04:21.575Z,47.19
2022-09-05T20:06:50.242Z,47.26
2022-09-05T20:09:20.562Z,47.46
2022-09-05T20:11:54.718Z,47.53
2022-09-05T20:14:30.704Z,47.74
2022-09-05T20:17:23.339Z,47.88
2022-09-05T20:20:12.310Z,48.02
2022-09-05T20:22:49.468Z,48.23
2022-09-05T20:25:36.122Z,48.39
2022-09-05T20:28:10.350Z,48.66
2022-09-05T20:30:45.312Z,48.70
2022-09-05T20:34:00.818Z,48.76
2022-09-05T20:43:09.667Z,48.88
2022-09-05T20:43:22.127Z,49.18
2022-09-05T20:43:22.129Z,49.11
2022-09-05T20:45:58.783Z,49.42
2022-09-05T20:54:04.876Z,49.40
2022-09-05T20:54:22.576Z,49.53
2022-09-05T20:54:31.937Z,49.68
2022-09-05T20:57:18.621Z,49.74
2022-09-05T20:59:50.137Z,49.77
2022-09-05T21:02:20.803Z,49.98
2022-09-05T21:05:21.168Z,49.97
2022-09-05T21:08:02.448Z,50.15
2022-09-05T21:10:56.063Z,50.38
2022-09-05T21:13:27.426Z,50.42
2022-09-05T21:15:56.065Z,50.58
2022-09-05T21:18:33.330Z,50.76
2022-09-05T21:21:25.727Z,50.77
2022-09-05T21:24:16.858Z,50.71
2022-09-05T21:26:48.478Z,50.93
2022-09-05T21:29:17.623Z,51.14
2022-09-05T21:31:54.416Z,51.25
2022-09-05T21:34:22.844Z,51.38
2022-09-05T21:36:59.221Z,51.37
2022-09-05T21:39:54.000Z,51.43
2022-09-05T21:44:46.786Z,51.45
2022-09-05T21:47:43.654Z,51.62
2022-09-05T21:48:11.772Z,51.78
2022-09-05T21:50:45.126Z,51.83
2022-09-05T21:57:00.405Z,52.01
2022-09-05T21:59:16.303Z,52.02
2022-09-05T21:59:25.570Z,52.15
2022-09-05T22:01:56.714Z,52.13
2022-09-05T22:04:24.789Z,52.25
2022-09-05T22:06:54.259Z,52.47
2022-09-05T22:09:22.558Z,52.50
2022-09-05T22:11:51.483Z,52.64
2022-09-05T22:14:20.868Z,52.60
2022-09-05T22:16:51.542Z,52.62
2022-09-05T22:19:36.979Z,52.72
2022-09-05T22:22:16.062Z,52.76
2022-09-05T22:24:55.494Z,52.78
2022-09-05T22:27:25.521Z,52.86
2022-09-05T22:29:53.462Z,52.86
2022-09-05T22:32:33.750Z,52.91
2022-09-05T22:35:26.880Z,53.02
2022-09-05T22:38:00.271Z,53.10
2022-09-05T22:40:30.238Z,53.22
2022-09-05T22:43:00.394Z,53.18
2022-09-05T22:45:29.748Z,53.24
2022-09-05T22:47:58.591Z,53.22
2022-09-05T22:50:26.469Z,53.26
2022-09-05T22:52:54.184Z,53.20
2022-09-05T22:55:22.191Z,53.27
2022-09-05T22:57:50.028Z,53.34
2022-09-05T23:00:17.819Z,53.33
2022-09-05T23:02:48.986Z,53.40
2022-09-05T23:05:19.412Z,53.44
2022-09-05T23:07:47.262Z,53.51
2022-09-05T23:10:15.011Z,53.56
2022-09-05T23:12:42.668Z,53.71
2022-09-05T23:15:10.640Z,53.69
2022-09-05T23:17:38.596Z,53.71
2022-09-05T23:20:06.869Z,53.69
2022-09-05T23:22:40.197Z,53.67
2022-09-05T23:25:08.255Z,53.79
2022-09-05T23:27:36.855Z,53.86
2022-09-05T23:30:07.318Z,53.92
2022-09-05T23:32:35.040Z,53.76
2022-09-05T23:35:03.247Z,53.84
2022-09-05T23:37:31.035Z,53.72
2022-09-05T23:39:58.766Z,53.75
2022-09-05T23:42:27.145Z,53.88
2022-09-05T23:44:54.841Z,53.81
2022-09-05T23:47:22.778Z,54.04
2022-09-05T23:49:50.386Z,54.01
2022-09-05T23:52:18.100Z,53.97
2022-09-05T23:54:45.823Z,53.90
2022-09-05T23:57:13.611Z,53.92
2022-09-05T23:59:41.330Z,54.07
